createdAt,value
2019-01-12T00:00:04.920Z,102019.11
2019-01-12T00:01:40.571Z,102028.87
2019-01-12T00:03:23.646Z,102028.59
2019-01-12T00:05:03.342Z,102034.29
2019-01-12T00:06:41.179Z,102036.19
2019-01-12T00:08:16.972Z,102043.23
2019-01-12T00:09:52.344Z,102046.75
2019-01-12T00:11:28.653Z,102048.92
2019-01-12T00:13:04.161Z,102044.86
2019-01-12T00:14:40.285Z,102043.23
2019-01-12T00:16:18.046Z,102045.39
2019-01-12T00:17:53.777Z,102050.55
2019-01-12T00:19:31.940Z,102046.48
2019-01-12T00:21:09.224Z,102052.44
2019-01-12T00:22:45.210Z,102045.94
2019-01-12T00:24:21.637Z,102050.27
2019-01-12T00:25:58.532Z,102050.81
2019-01-12T00:27:38.994Z,102053.26
2019-01-12T00:29:15.056Z,102050.55
2019-01-12T00:30:52.301Z,102045.39
2019-01-12T00:32:30.119Z,102048.92
2019-01-12T00:34:05.726Z,102045.94
2019-01-12T00:35:41.559Z,102045.40
2019-01-12T00:37:29.206Z,102047.84
2019-01-12T00:39:07.218Z,102046.48
2019-01-12T00:40:46.921Z,102044.05
2019-01-12T00:42:27.653Z,102046.75
2019-01-12T00:44:03.325Z,102041.06
2019-01-12T00:45:39.260Z,102039.44
2019-01-12T00:47:16.012Z,102041.61
2019-01-12T00:48:51.983Z,102044.86
2019-01-12T00:50:30.224Z,102046.75
2019-01-12T00:52:06.278Z,102037.27
2019-01-12T00:53:42.187Z,102036.45
2019-01-12T00:55:17.765Z,102037.81
2019-01-12T00:56:58.155Z,102037.81
2019-01-12T00:58:38.509Z,102035.64
2019-01-12T01:00:19.743Z,102044.04
2019-01-12T01:01:55.515Z,102037.56
2019-01-12T01:03:32.502Z,102029.44
2019-01-12T01:05:08.408Z,102046.51
2019-01-12T01:06:45.903Z,102054.37
2019-01-12T01:08:22.469Z,102050.57
2019-01-12T01:09:59.555Z,102058.44
2019-01-12T01:11:35.664Z,102063.58
2019-01-12T01:13:12.077Z,102068.46
2019-01-12T01:14:47.968Z,102065.48
2019-01-12T01:16:23.539Z,102057.89
2019-01-12T01:17:59.350Z,102053.83
2019-01-12T01:19:35.330Z,102054.36
2019-01-12T01:21:11.932Z,102058.97
2019-01-12T01:22:47.733Z,102056.53
2019-01-12T01:24:26.390Z,102063.03
2019-01-12T01:26:02.581Z,102065.20
2019-01-12T01:27:38.535Z,102070.89
2019-01-12T01:29:13.837Z,102078.74
2019-01-12T01:30:49.166Z,102079.56
2019-01-12T01:32:24.588Z,102092.30
2019-01-12T01:34:04.604Z,102089.04
2019-01-12T01:35:39.995Z,102079.83
2019-01-12T01:37:15.451Z,102094.73
2019-01-12T01:38:50.746Z,102090.13
2019-01-12T01:40:26.571Z,102092.83
2019-01-12T01:42:03.736Z,102089.04
2019-01-12T01:43:39.156Z,102095.81
2019-01-12T01:45:17.204Z,102087.95
2019-01-12T01:46:52.611Z,102088.50
2019-01-12T01:48:27.919Z,102084.16
2019-01-12T01:50:08.152Z,102092.55
2019-01-12T01:51:44.033Z,102084.73
2019-01-12T01:53:19.351Z,102096.92
2019-01-12T01:54:54.738Z,102112.63
2019-01-12T01:56:30.577Z,102109.92
2019-01-12T01:58:06.250Z,102117.52
2019-01-12T01:59:44.353Z,102125.06
2019-01-12T02:01:19.953Z,102126.99
2019-01-12T02:02:55.403Z,102129.70
2019-01-12T02:04:30.875Z,102135.66
2019-01-12T02:06:06.480Z,102146.75
2019-01-12T02:07:42.247Z,102131.31
2019-01-12T02:09:18.059Z,102136.47
2019-01-12T02:10:56.354Z,102136.19
2019-01-12T02:12:31.843Z,102135.64
2019-01-12T02:14:07.666Z,102139.44
2019-01-12T02:15:42.968Z,102141.05
2019-01-12T02:17:18.453Z,102142.41
2019-01-12T02:18:54.090Z,102151.35
2019-01-12T02:20:29.479Z,102147.82
2019-01-12T02:22:08.108Z,102139.95
2019-01-12T02:23:43.598Z,102149.44
2019-01-12T02:25:19.134Z,102152.72
2019-01-12T02:26:54.544Z,102152.44
2019-01-12T02:28:29.958Z,102153.80
2019-01-12T02:30:08.866Z,102160.57
2019-01-12T02:31:44.292Z,102155.42
2019-01-12T02:33:19.667Z,102158.67
2019-01-12T02:34:57.077Z,102152.70
2019-01-12T02:36:32.111Z,102144.30
2019-01-12T02:38:07.879Z,102144.02
2019-01-12T02:39:43.227Z,102148.36
2019-01-12T02:41:18.533Z,102144.56
2019-01-12T02:42:53.810Z,102141.31
2019-01-12T02:44:29.148Z,102145.11
2019-01-12T02:46:04.786Z,102144.83
2019-01-12T02:47:41.394Z,102136.98
2019-01-12T02:49:16.761Z,102142.94
2019-01-12T02:50:52.183Z,102140.22
2019-01-12T02:52:27.975Z,102123.97
2019-01-12T02:54:03.659Z,102141.84
2019-01-12T02:55:39.121Z,102136.70
2019-01-12T02:57:14.596Z,102141.05
2019-01-12T02:58:49.932Z,102142.13
2019-01-12T03:00:26.763Z,102128.03
2019-01-12T03:02:02.298Z,102119.92
2019-01-12T03:03:38.692Z,102122.34
2019-01-12T03:05:14.292Z,102120.20
2019-01-12T03:06:49.600Z,102118.28
2019-01-12T03:08:25.320Z,102109.36
2019-01-12T03:10:02.440Z,102103.95
2019-01-12T03:11:37.850Z,102101.23
2019-01-12T03:13:13.258Z,102099.61
2019-01-12T03:14:48.624Z,102097.44
2019-01-12T03:16:23.949Z,102080.65
2019-01-12T03:17:59.479Z,102068.19
2019-01-12T03:19:34.846Z,102049.23
2019-01-12T03:21:10.139Z,102041.65
2019-01-12T03:22:45.808Z,102037.86
2019-01-12T03:24:21.432Z,102043.28
2019-01-12T03:25:58.465Z,102036.78
2019-01-12T03:27:34.313Z,102025.67
2019-01-12T03:29:09.612Z,102021.34
2019-01-12T03:30:44.970Z,101490.08
2019-01-12T03:32:20.229Z,101283.53
2019-01-12T03:33:55.811Z,101117.00
2019-01-12T03:35:31.155Z,100985.14
2019-01-12T03:37:06.609Z,100505.75
2019-01-12T03:38:41.868Z,99164.36
2019-01-12T03:40:19.202Z,99061.88
2019-01-12T03:41:54.840Z,99013.95
2019-01-12T03:43:30.103Z,98990.17
2019-01-12T03:45:09.050Z,98976.64
2019-01-12T03:46:44.434Z,98949.58
2019-01-12T03:48:20.173Z,98939.55
2019-01-12T03:49:55.846Z,98930.08
2019-01-12T03:51:31.654Z,98924.09
2019-01-12T03:53:07.016Z,98911.70
2019-01-12T03:54:42.829Z,98903.58
2019-01-12T03:56:18.061Z,98894.33
2019-01-12T03:57:53.755Z,98886.22
2019-01-12T03:59:29.056Z,98871.68
2019-01-12T04:01:04.447Z,98862.21
2019-01-12T04:02:39.940Z,98854.88
2019-01-12T04:04:15.197Z,98850.82
2019-01-12T04:05:50.731Z,98850.95
2019-01-12T04:07:25.974Z,98845.97
2019-01-12T04:09:02.154Z,98846.55
2019-01-12T04:10:37.457Z,98841.35
2019-01-12T04:12:13.191Z,98836.16
2019-01-12T04:13:48.414Z,98826.47
2019-01-12T04:15:24.007Z,98824.67
2019-01-12T04:17:00.103Z,98820.84
2019-01-12T04:18:35.805Z,98814.42
2019-01-12T04:20:13.172Z,98815.42
2019-01-12T04:21:48.466Z,98801.45
2019-01-12T04:23:23.861Z,98809.45
2019-01-12T04:24:59.247Z,98809.80
2019-01-12T04:26:34.568Z,98809.58
2019-01-12T04:28:10.198Z,98807.31
2019-01-12T04:29:45.445Z,98803.59
2019-01-12T04:31:20.658Z,98800.11
2019-01-12T04:32:55.953Z,98793.12
2019-01-12T04:34:31.198Z,98791.55
2019-01-12T04:36:06.585Z,98789.98
2019-01-12T04:37:41.823Z,98785.92
2019-01-12T04:39:17.161Z,98784.00
2019-01-12T04:40:53.021Z,98789.19
2019-01-12T04:42:28.401Z,98791.33
2019-01-12T04:44:04.079Z,98787.65
2019-01-12T04:45:40.282Z,98778.18
2019-01-12T04:47:15.546Z,98783.59
2019-01-12T04:48:51.141Z,98784.16
2019-01-12T04:50:26.501Z,98777.80
2019-01-12T04:52:01.821Z,98776.05
2019-01-12T04:53:37.363Z,98771.98
2019-01-12T04:55:12.989Z,98777.17
2019-01-12T04:56:48.844Z,98758.80
2019-01-12T04:58:25.485Z,98756.31
2019-01-12T05:00:00.868Z,98756.09
2019-01-12T05:01:36.282Z,98754.52
2019-01-12T05:03:11.504Z,98744.70
2019-01-12T05:04:46.851Z,98751.03
2019-01-12T05:06:22.211Z,98749.91
2019-01-12T05:07:57.608Z,98731.53
2019-01-12T05:09:35.846Z,98729.61
2019-01-12T05:11:11.394Z,98734.59
2019-01-12T05:12:49.840Z,98728.17
2019-01-12T05:14:27.256Z,98738.99
2019-01-12T05:16:03.090Z,98736.28
2019-01-12T05:17:38.518Z,98736.06
2019-01-12T05:19:14.203Z,98740.91
2019-01-12T05:20:52.849Z,98739.34
2019-01-12T05:22:28.246Z,98732.58
2019-01-12T05:24:03.959Z,98725.03
2019-01-12T05:25:39.615Z,98732.58
2019-01-12T05:27:16.016Z,98724.23
2019-01-12T05:28:51.327Z,98723.11
2019-01-12T05:30:26.707Z,98720.97
2019-01-12T05:32:05.747Z,98721.31
2019-01-12T05:33:41.481Z,98718.83
2019-01-12T05:35:16.727Z,98717.05
2019-01-12T05:36:52.005Z,98711.63
2019-01-12T05:38:27.279Z,98709.30
2019-01-12T05:40:02.636Z,98712.58
2019-01-12T05:41:38.370Z,98716.82
2019-01-12T05:43:15.964Z,98713.71
2019-01-12T05:44:51.338Z,98722.30
2019-01-12T05:46:27.151Z,98721.99
2019-01-12T05:48:02.602Z,98719.63
2019-01-12T05:49:38.201Z,98729.09
2019-01-12T05:51:13.522Z,98730.83
2019-01-12T05:52:48.942Z,98732.18
2019-01-12T05:54:24.383Z,98731.02
2019-01-12T05:55:59.690Z,98734.88
2019-01-12T05:57:35.616Z,98734.09
2019-01-12T05:59:11.450Z,98733.53
2019-01-12T06:00:46.929Z,98740.86
2019-01-12T06:02:22.205Z,98741.42
2019-01-12T06:03:57.542Z,98753.03
2019-01-12T06:05:32.946Z,98745.27
2019-01-12T06:07:08.371Z,98747.43
2019-01-12T06:08:43.609Z,98759.95
2019-01-12T06:10:19.858Z,98748.12
2019-01-12T06:11:55.416Z,98745.80
2019-01-12T06:13:30.971Z,98740.39
2019-01-12T06:15:08.180Z,98752.68
2019-01-12T06:16:48.323Z,98752.80
2019-01-12T06:18:24.371Z,98760.03
2019-01-12T06:20:00.049Z,98754.34
2019-01-12T06:21:35.914Z,98741.95
2019-01-12T06:23:11.817Z,98748.17
2019-01-12T06:24:47.582Z,98743.55
2019-01-12T06:26:23.046Z,98741.76
2019-01-12T06:27:59.137Z,98737.92
2019-01-12T06:29:34.587Z,98737.48
2019-01-12T06:31:11.189Z,98736.91
2019-01-12T06:32:46.689Z,98737.70
2019-01-12T06:34:24.232Z,98741.76
2019-01-12T06:35:59.629Z,98750.31
2019-01-12T06:37:36.114Z,98752.45
2019-01-12T06:39:14.627Z,98745.13
2019-01-12T06:40:50.684Z,98753.45
2019-01-12T06:42:31.127Z,98756.59
2019-01-12T06:44:06.232Z,98754.80
2019-01-12T06:45:44.418Z,98747.83
2019-01-12T06:47:20.275Z,98743.67
2019-01-12T06:48:55.750Z,98732.42
2019-01-12T06:50:31.105Z,98745.94
2019-01-12T06:52:06.397Z,98741.09
2019-01-12T06:53:41.755Z,98746.72
2019-01-12T06:55:17.017Z,98739.97
2019-01-12T06:56:52.792Z,98737.64
2019-01-12T06:58:28.247Z,98734.05
2019-01-12T07:00:05.500Z,98739.11
2019-01-12T07:01:42.344Z,98738.10
2019-01-12T07:03:17.646Z,98730.36
2019-01-12T07:04:53.455Z,98722.97
2019-01-12T07:06:29.339Z,98734.34
2019-01-12T07:08:05.176Z,98732.77
2019-01-12T07:09:41.854Z,98731.42
2019-01-12T07:11:19.341Z,98737.39
2019-01-12T07:12:59.615Z,98731.20
2019-01-12T07:14:35.111Z,98732.21
2019-01-12T07:16:10.380Z,98726.58
2019-01-12T07:17:46.325Z,98712.07
2019-01-12T07:19:21.762Z,98717.81
2019-01-12T07:20:57.419Z,98717.59
2019-01-12T07:22:32.706Z,98712.19
2019-01-12T07:24:09.252Z,98705.22
2019-01-12T07:25:44.599Z,98706.91
2019-01-12T07:27:20.162Z,98702.30
2019-01-12T07:28:56.237Z,98699.94
2019-01-12T07:30:32.014Z,98690.28
2019-01-12T07:32:07.871Z,98696.45
2019-01-12T07:33:43.857Z,98705.34
2019-01-12T07:35:19.234Z,98700.72
2019-01-12T07:36:54.883Z,98696.25
2019-01-12T07:38:30.380Z,98692.77
2019-01-12T07:40:08.699Z,98687.59
2019-01-12T07:41:44.317Z,98691.05
2019-01-12T07:43:19.630Z,98689.69
2019-01-12T07:44:55.018Z,98692.62
2019-01-12T07:46:30.500Z,98695.54
2019-01-12T07:48:05.907Z,98693.62
2019-01-12T07:49:41.802Z,98704.09
2019-01-12T07:51:17.063Z,98698.68
2019-01-12T07:52:52.896Z,98697.77
2019-01-12T07:54:29.756Z,98699.34
2019-01-12T07:56:05.290Z,98696.08
2019-01-12T07:57:42.112Z,98697.08
2019-01-12T07:59:17.443Z,98691.91
2019-01-12T08:00:52.851Z,98701.92
2019-01-12T08:02:28.183Z,98699.44
2019-01-12T08:04:04.699Z,98704.06
2019-01-12T08:05:40.385Z,98689.20
2019-01-12T08:07:15.660Z,98689.98
2019-01-12T08:08:51.127Z,98687.84
2019-01-12T08:10:27.203Z,98686.16
2019-01-12T08:12:03.076Z,98674.34
2019-01-12T08:13:38.838Z,98678.61
2019-01-12T08:15:15.919Z,98682.67
2019-01-12T08:16:53.910Z,98675.91
2019-01-12T08:18:30.353Z,98675.34
2019-01-12T08:20:07.663Z,98672.98
2019-01-12T08:21:42.945Z,98675.69
2019-01-12T08:23:18.300Z,98669.38
2019-01-12T08:24:53.531Z,98661.27
2019-01-12T08:26:31.341Z,98666.23
2019-01-12T08:28:06.498Z,98660.17
2019-01-12T08:29:41.902Z,98663.22
2019-01-12T08:31:24.635Z,98651.06
2019-01-12T08:33:02.025Z,98658.82
2019-01-12T08:34:37.926Z,98647.45
2019-01-12T08:36:14.138Z,98656.12
2019-01-12T08:37:49.582Z,98665.35
2019-01-12T08:39:27.287Z,98660.52
2019-01-12T08:41:02.855Z,98654.10
2019-01-12T08:42:41.561Z,98640.81
2019-01-12T08:44:17.154Z,98644.52
2019-01-12T08:45:52.851Z,98659.16
2019-01-12T08:47:33.580Z,98656.69
2019-01-12T08:49:09.209Z,98659.95
2019-01-12T08:50:45.775Z,98652.41
2019-01-12T08:52:21.171Z,98659.03
2019-01-12T08:53:56.814Z,98657.81
2019-01-12T08:55:32.231Z,98653.76
2019-01-12T08:57:07.748Z,98644.30
2019-01-12T08:58:43.339Z,98645.44
2019-01-12T09:00:21.316Z,98635.28
2019-01-12T09:01:58.467Z,98636.30
2019-01-12T09:03:34.535Z,98640.34
2019-01-12T09:05:10.691Z,98633.02
2019-01-12T09:06:48.862Z,98639.44
2019-01-12T09:08:24.253Z,98636.52
2019-01-12T09:09:59.710Z,98642.48
2019-01-12T09:11:35.101Z,98651.81
2019-01-12T09:13:10.945Z,98654.92
2019-01-12T09:14:49.718Z,98659.92
2019-01-12T09:16:25.660Z,98668.44
2019-01-12T09:18:01.071Z,98667.09
2019-01-12T09:19:36.884Z,98674.97
2019-01-12T09:21:13.043Z,98664.95
2019-01-12T09:22:48.286Z,98653.58
2019-01-12T09:24:26.052Z,98642.36
2019-01-12T09:26:01.309Z,98643.48
2019-01-12T09:27:36.985Z,98647.26
2019-01-12T09:29:12.442Z,98646.59
2019-01-12T09:30:49.074Z,98642.36
2019-01-12T09:32:24.775Z,98647.32
2019-01-12T09:34:02.744Z,98636.36
2019-01-12T09:35:39.019Z,98636.16
2019-01-12T09:37:14.987Z,98637.52
2019-01-12T09:38:50.762Z,98631.55
2019-01-12T09:40:26.168Z,98628.84
2019-01-12T09:42:07.115Z,98624.64
2019-01-12T09:43:49.052Z,98620.80
2019-01-12T09:45:24.894Z,98612.83
2019-01-12T09:47:03.171Z,98606.73
2019-01-12T09:48:41.599Z,98614.27
2019-01-12T09:50:19.091Z,98610.12
2019-01-12T09:51:57.370Z,98611.56
2019-01-12T09:53:33.275Z,98604.46
2019-01-12T09:55:09.301Z,98597.48
2019-01-12T09:56:51.571Z,98603.33
2019-01-12T09:58:22.020Z,98601.98
2019-01-12T09:59:57.441Z,98602.89
2019-01-12T10:01:36.149Z,98598.97
2019-01-12T10:03:24.506Z,98597.14
2019-01-12T10:04:59.980Z,98594.09
2019-01-12T10:06:35.308Z,98584.98
2019-01-12T10:08:10.807Z,98586.55
2019-01-12T10:09:46.523Z,98590.61
2019-01-12T10:11:29.153Z,98598.93
2019-01-12T10:13:04.840Z,98602.98
2019-01-12T10:14:40.423Z,98578.92
2019-01-12T10:16:16.142Z,98588.47
2019-01-12T10:17:53.185Z,98578.88
2019-01-12T10:19:34.050Z,98576.05
2019-01-12T10:21:10.032Z,98567.41
2019-01-12T10:22:46.228Z,98569.30
2019-01-12T10:24:22.823Z,98561.31
2019-01-12T10:26:02.774Z,98558.27
2019-01-12T10:27:38.542Z,98558.67
2019-01-12T10:29:14.638Z,98558.89
2019-01-12T10:30:50.370Z,98555.97
2019-01-12T10:32:27.772Z,98543.80
2019-01-12T10:34:03.553Z,98540.63
2019-01-12T10:35:38.867Z,98531.81
2019-01-12T10:37:14.506Z,98535.64
2019-01-12T10:38:49.801Z,98523.75
2019-01-12T10:40:26.383Z,98523.62
2019-01-12T10:42:02.160Z,98529.33
2019-01-12T10:43:49.079Z,98526.89
2019-01-12T10:45:25.685Z,98525.31
2019-01-12T10:47:05.213Z,98519.56
2019-01-12T10:49:04.665Z,98514.08
2019-01-12T10:50:56.239Z,98511.15
2019-01-12T10:52:33.698Z,98507.41
2019-01-12T10:54:16.249Z,98511.72
2019-01-12T10:56:02.906Z,98515.55
2019-01-12T10:57:40.093Z,98513.72
2019-01-12T10:59:19.652Z,98513.16
2019-01-12T11:01:22.671Z,98522.05
2019-01-12T11:03:02.487Z,98520.05
2019-01-12T11:04:54.999Z,98492.40
2019-01-12T11:06:46.933Z,98483.34
2019-01-12T11:08:26.754Z,98479.59
2019-01-12T11:10:06.782Z,98458.11
2019-01-12T11:11:44.481Z,98461.38
2019-01-12T11:13:34.380Z,98442.81
2019-01-12T11:15:21.002Z,98443.12
2019-01-12T11:17:04.967Z,98443.91
2019-01-12T11:18:45.444Z,98437.84
2019-01-12T11:20:22.571Z,98434.23
2019-01-12T11:22:07.317Z,98433.23
2019-01-12T11:23:49.677Z,98444.95
2019-01-12T11:25:30.101Z,98445.25
2019-01-12T11:27:12.340Z,98443.55
2019-01-12T11:28:53.338Z,98432.88
2019-01-12T11:30:35.601Z,98435.09
2019-01-12T11:32:12.700Z,98433.01
2019-01-12T11:33:54.179Z,98424.28
2019-01-12T11:35:30.659Z,98424.50
2019-01-12T11:37:06.961Z,98418.15
2019-01-12T11:38:45.479Z,98396.89
2019-01-12T11:40:23.226Z,98413.09
2019-01-12T11:42:06.530Z,98416.88
2019-01-12T11:43:47.015Z,98418.80
2019-01-12T11:45:23.732Z,98410.48
2019-01-12T11:47:01.850Z,98408.48
2019-01-12T11:48:43.624Z,98401.45
2019-01-12T11:50:19.813Z,98403.59
2019-01-12T11:51:55.316Z,98406.70
2019-01-12T11:53:30.832Z,98392.43
2019-01-12T11:55:07.877Z,98394.53
2019-01-12T11:56:43.295Z,98393.97
2019-01-12T11:58:22.471Z,98388.64
2019-01-12T11:59:58.516Z,98375.70
2019-01-12T12:01:34.408Z,98381.97
2019-01-12T12:03:09.814Z,98364.33
2019-01-12T12:04:53.210Z,98367.24
2019-01-12T12:06:32.888Z,98366.33
2019-01-12T12:08:10.583Z,98369.23
2019-01-12T12:09:53.426Z,98364.62
2019-01-12T12:11:56.756Z,98357.20
2019-01-12T12:13:38.883Z,98347.27
2019-01-12T12:15:31.122Z,98329.92
2019-01-12T12:17:10.773Z,98336.67
2019-01-12T12:18:47.464Z,98320.67
2019-01-12T12:20:27.895Z,98327.33
2019-01-12T12:22:05.212Z,98323.06
2019-01-12T12:23:40.939Z,98316.52
2019-01-12T12:25:17.975Z,98306.64
2019-01-12T12:26:54.355Z,98309.77
2019-01-12T12:28:30.033Z,98303.08
2019-01-12T12:30:11.941Z,98301.73
2019-01-12T12:31:48.558Z,98305.64
2019-01-12T12:33:23.908Z,98304.93
2019-01-12T12:34:59.985Z,98294.91
2019-01-12T12:36:35.528Z,98293.77
2019-01-12T12:38:17.457Z,98278.05
2019-01-12T12:39:52.729Z,98284.59
2019-01-12T12:41:28.850Z,98274.56
2019-01-12T12:43:04.448Z,98277.22
2019-01-12T12:44:41.378Z,98273.39
2019-01-12T12:46:18.653Z,98273.00
2019-01-12T12:47:54.253Z,98264.71
2019-01-12T12:49:29.941Z,98256.22
2019-01-12T12:51:05.253Z,98254.36
2019-01-12T12:52:41.603Z,98247.75
2019-01-12T12:54:16.987Z,98244.34
2019-01-12T12:55:52.259Z,98238.00
2019-01-12T12:57:32.867Z,98229.33
2019-01-12T12:59:05.836Z,98225.99
2019-01-12T13:00:41.795Z,98213.41
2019-01-12T13:02:17.249Z,98217.16
2019-01-12T13:03:52.731Z,98213.47
2019-01-12T13:05:28.314Z,98210.48
2019-01-12T13:07:04.257Z,98202.37
2019-01-12T13:08:40.062Z,98197.75
2019-01-12T13:10:23.256Z,98201.27
2019-01-12T13:12:07.586Z,98197.42
2019-01-12T13:13:48.791Z,98203.82
2019-01-12T13:15:28.384Z,98196.70
2019-01-12T13:17:03.760Z,98189.95
2019-01-12T13:18:40.074Z,98186.25
2019-01-12T13:20:20.671Z,98182.05
2019-01-12T13:22:00.135Z,98176.28
2019-01-12T13:23:42.624Z,98169.31
2019-01-12T13:25:22.732Z,98172.83
2019-01-12T13:26:58.269Z,98166.13
2019-01-12T13:28:35.307Z,98164.90
2019-01-12T13:30:27.315Z,98159.22
2019-01-12T13:32:03.884Z,98160.21
2019-01-12T13:33:43.035Z,98159.70
2019-01-12T13:35:19.132Z,98161.23
2019-01-12T13:36:57.223Z,98160.66
2019-01-12T13:38:33.092Z,98149.84
2019-01-12T13:40:10.209Z,98150.84
2019-01-12T13:41:48.316Z,98145.84
2019-01-12T13:43:28.370Z,98144.13
2019-01-12T13:45:07.919Z,98134.16
2019-01-12T13:46:48.538Z,98138.99
2019-01-12T13:48:24.068Z,98134.96
2019-01-12T13:50:02.643Z,98131.53
2019-01-12T13:51:39.611Z,98117.44
2019-01-12T13:53:21.695Z,98114.00
2019-01-12T13:54:58.435Z,98108.02
2019-01-12T13:56:34.277Z,98095.85
2019-01-12T13:58:14.947Z,98092.99
2019-01-12T13:59:55.107Z,98094.34
2019-01-12T14:01:34.853Z,98078.14
2019-01-12T14:03:13.409Z,98080.42
2019-01-12T14:04:50.546Z,98083.23
2019-01-12T14:06:27.980Z,98071.42
2019-01-12T14:08:06.970Z,98070.07
2019-01-12T14:09:49.074Z,98068.19
2019-01-12T14:11:27.831Z,98063.56
2019-01-12T14:13:07.210Z,98049.09
2019-01-12T14:14:46.525Z,98047.14
2019-01-12T14:16:22.596Z,98052.97
2019-01-12T14:18:01.239Z,98049.32
2019-01-12T14:19:42.835Z,98051.91
2019-01-12T14:21:21.028Z,98042.03
2019-01-12T14:22:59.266Z,98040.11
2019-01-12T14:24:37.672Z,98037.03
2019-01-12T14:26:21.022Z,98028.91
2019-01-12T14:28:15.208Z,98025.84
2019-01-12T14:29:50.665Z,98023.15
2019-01-12T14:31:38.848Z,98016.59
2019-01-12T14:33:16.309Z,98010.97
2019-01-12T14:35:00.466Z,98007.69
2019-01-12T14:36:38.394Z,98007.12
2019-01-12T14:38:16.534Z,97999.98
2019-01-12T14:40:03.436Z,98004.86
2019-01-12T14:41:36.435Z,98005.84
2019-01-12T14:43:12.400Z,97996.95
2019-01-12T14:44:50.943Z,97988.63
2019-01-12T14:46:41.732Z,97991.55
2019-01-12T14:48:23.434Z,97985.97
2019-01-12T14:50:10.941Z,97983.47
2019-01-12T14:51:47.466Z,97985.39
2019-01-12T14:53:22.746Z,97978.83
2019-01-12T14:55:07.206Z,97992.00
2019-01-12T14:56:45.623Z,97978.67
2019-01-12T14:58:24.926Z,97987.77
2019-01-12T15:00:06.691Z,97977.92
2019-01-12T15:01:52.373Z,97982.19
2019-01-12T15:03:44.575Z,97978.52
2019-01-12T15:05:45.358Z,97965.75
2019-01-12T15:07:33.296Z,97965.55
2019-01-12T15:09:38.670Z,97963.45
2019-01-12T15:11:18.885Z,97954.96
2019-01-12T15:13:05.295Z,97959.43
2019-01-12T15:14:48.866Z,97958.48
2019-01-12T15:16:28.197Z,97953.64
2019-01-12T15:18:19.936Z,97961.02
2019-01-12T15:20:04.191Z,97960.24
2019-01-12T15:21:51.991Z,97944.20
2019-01-12T15:23:36.158Z,97952.33
2019-01-12T15:25:16.875Z,97956.77
2019-01-12T15:27:03.535Z,97945.36
2019-01-12T15:28:40.368Z,97943.63
2019-01-12T15:30:22.675Z,97936.69
2019-01-12T15:32:08.666Z,97941.73
2019-01-12T15:33:46.710Z,97936.72
2019-01-12T15:35:22.884Z,97942.14
2019-01-12T15:37:10.523Z,97939.84
2019-01-12T15:38:51.640Z,97939.63
2019-01-12T15:40:35.373Z,97938.48
2019-01-12T15:42:13.905Z,97938.48
2019-01-12T15:43:49.855Z,97936.55
2019-01-12T15:45:26.617Z,97933.84
2019-01-12T15:47:09.918Z,97927.45
2019-01-12T15:48:51.067Z,97926.30
2019-01-12T15:50:28.710Z,97933.67
2019-01-12T15:52:09.143Z,97932.89
2019-01-12T15:53:49.519Z,97936.38
2019-01-12T15:55:30.014Z,97920.13
2019-01-12T15:57:09.929Z,97926.53
2019-01-12T15:58:57.683Z,97924.59
2019-01-12T16:00:33.382Z,97914.72
2019-01-12T16:02:39.834Z,97921.31
2019-01-12T16:04:14.487Z,97918.81
2019-01-12T16:05:56.785Z,97911.84
2019-01-12T16:07:41.692Z,97908.55
2019-01-12T16:09:17.079Z,97896.36
2019-01-12T16:11:13.426Z,97916.70
2019-01-12T16:13:11.494Z,97911.28
2019-01-12T16:14:48.041Z,97904.31
2019-01-12T16:16:41.909Z,97899.47
2019-01-12T16:18:17.843Z,97906.45
2019-01-12T16:20:15.060Z,97899.67
2019-01-12T16:21:59.249Z,97905.27
2019-01-12T16:23:42.187Z,97899.09
2019-01-12T16:25:25.262Z,97901.98
2019-01-12T16:27:20.651Z,97909.53
2019-01-12T16:29:10.660Z,97901.41
2019-01-12T16:31:30.827Z,97889.79
2019-01-12T16:33:15.614Z,97897.54
2019-01-12T16:35:05.228Z,97893.88
2019-01-12T16:36:42.611Z,97895.03
2019-01-12T16:38:32.564Z,97894.45
2019-01-12T16:40:14.588Z,97891.55
2019-01-12T16:41:59.445Z,97891.34
2019-01-12T16:43:52.203Z,97885.93
2019-01-12T16:45:42.780Z,97894.26
2019-01-12T16:47:44.969Z,97890.97
2019-01-12T16:49:40.435Z,97894.66
2019-01-12T16:51:46.880Z,97887.89
2019-01-12T16:53:43.263Z,97883.83
2019-01-12T16:55:35.109Z,97880.13
2019-01-12T16:57:24.577Z,97867.17
2019-01-12T16:59:09.499Z,97889.81
2019-01-12T17:00:56.750Z,97880.71
2019-01-12T17:02:46.322Z,97891.14
2019-01-12T17:04:28.637Z,97887.08
2019-01-12T17:06:08.830Z,97897.34
2019-01-12T17:07:48.859Z,97893.86
2019-01-12T17:20:11.880Z,97883.45
2019-01-12T17:21:47.945Z,97883.84
2019-01-12T17:23:25.535Z,97891.77
2019-01-12T17:25:02.199Z,97891.98
2019-01-12T17:26:40.653Z,97886.76
2019-01-12T17:28:16.013Z,97882.52
2019-01-12T17:29:53.231Z,97879.41
2019-01-12T17:31:28.544Z,97877.67
2019-01-12T17:33:11.353Z,97878.66
2019-01-12T17:34:46.749Z,97875.94
2019-01-12T17:36:23.100Z,97877.50
2019-01-12T17:38:03.351Z,97878.48
2019-01-12T17:39:39.621Z,97874.41
2019-01-12T17:41:15.285Z,97878.28
2019-01-12T17:42:51.302Z,97877.13
2019-01-12T17:44:27.806Z,97876.92
2019-01-12T17:46:08.135Z,97865.68
2019-01-12T17:47:42.489Z,97866.84
2019-01-12T17:49:18.705Z,97871.09
2019-01-12T17:50:57.324Z,97862.77
2019-01-12T17:52:37.119Z,97860.64
2019-01-12T17:54:14.842Z,97862.00
2019-01-12T17:55:52.902Z,97871.88
2019-01-12T17:57:31.110Z,97875.56
2019-01-12T17:59:06.309Z,97881.77
2019-01-12T18:00:45.024Z,97875.97
2019-01-12T18:02:22.749Z,97869.57
2019-01-12T18:03:58.438Z,97865.50
2019-01-12T18:05:42.359Z,97871.12
2019-01-12T18:07:18.520Z,97865.50
2019-01-12T18:09:05.155Z,97858.53
2019-01-12T18:10:41.961Z,97854.06
2019-01-12T18:12:25.372Z,97857.35
2019-01-12T18:14:01.224Z,97857.16
2019-01-12T18:15:47.495Z,97866.26
2019-01-12T18:17:26.580Z,97867.23
2019-01-12T18:19:03.727Z,97870.52
2019-01-12T18:20:41.733Z,97867.03
2019-01-12T18:22:26.895Z,97859.48
2019-01-12T18:24:02.717Z,97864.33
2019-01-12T18:25:39.519Z,97879.43
2019-01-12T18:27:16.983Z,97877.50
2019-01-12T18:28:58.695Z,97881.73
2019-01-12T18:30:33.427Z,97879.98
2019-01-12T18:32:11.205Z,97869.73
2019-01-12T18:33:47.104Z,97866.23
2019-01-12T18:35:27.232Z,97863.53
2019-01-12T18:37:14.936Z,97844.94
2019-01-12T18:39:04.876Z,97859.84
2019-01-12T18:40:40.628Z,97855.38
2019-01-12T18:42:22.231Z,97848.61
2019-01-12T18:43:59.245Z,97848.61
2019-01-12T18:45:40.385Z,97859.44
2019-01-12T18:47:28.849Z,97855.75
2019-01-12T18:49:05.469Z,97855.76
2019-01-12T18:50:46.088Z,97859.05
2019-01-12T18:52:37.966Z,97849.89
2019-01-12T18:55:52.414Z,97857.01
2019-01-12T18:56:05.442Z,97847.65
2019-01-12T18:57:41.638Z,97853.03
2019-01-12T18:59:35.281Z,97852.25
2019-01-12T19:01:25.477Z,97855.36
2019-01-12T19:03:14.727Z,97858.68
2019-01-12T19:05:14.531Z,97861.22
2019-01-12T19:07:14.102Z,97848.08
2019-01-12T19:09:14.711Z,97848.08
2019-01-12T19:11:18.322Z,97850.95
2019-01-12T19:13:01.396Z,97849.03
2019-01-12T19:14:51.865Z,97842.46
2019-01-12T19:17:06.696Z,97849.06
2019-01-12T19:19:03.210Z,97847.53
2019-01-12T19:20:43.454Z,97846.00
2019-01-12T19:22:24.535Z,97855.88